Tim Quigg — WDB6570 — position and weather

sailwx.info

Track history (hours):
 
Tides and Currents Weather Stations Pressure Air Temp Water Temp Dewpoint Dewpoint Depression Visibility Wind Speed Wind Dir Waves Ship Positions

Tim Quigg

Owner: Harley Marine Services, Inc, Seattle, WA. More information available from US FCC via Universal Licensing System and Coast Guard Vessel Documentation Center.

Last reported at 2014-Oct-01 11:33 UTC. Time now 2014-Oct-01 12:19 UTC.
Position N 33°44' W 118°16'.

; draft 7.5 m.

Type: Tug. MMSI: 366926740.

Date/timePositionNaut miles runAvg speedWind from/ knotsBaromVisibWave heightAir tempDewpointWater temp
2014-Oct-01 11:33N 33°44' W 118°16'0 0.0
2014-Oct-01 10:33N 33°44' W 118°16'0 0.0
2014-Oct-01 09:33N 33°44' W 118°16'0 0.0
2014-Oct-01 08:33N 33°44' W 118°16'2 1.5
2014-Oct-01 07:31N 33°43' W 118°14'3 2.3
2014-Oct-01 06:24N 33°44' W 118°12'1 0.9
2014-Oct-01 05:23N 33°45' W 118°12'3 3.5
2014-Oct-01 04:33N 33°44' W 118°16'0 0.0
2014-Oct-01 03:33N 33°44' W 118°16'1 1.3
2014-Oct-01 02:33N 33°45' W 118°16'1 0.7
2014-Oct-01 01:33N 33°44' W 118°17'1 0.6
2014-Oct-01 00:32N 33°45' W 118°16'0 0.0
2014-Sep-30 23:33N 33°45' W 118°16'0 0.0
2014-Sep-30 22:33N 33°45' W 118°16'3 3.1
2014-Sep-30 21:33N 33°44' W 118°13'1 1.4
2014-Sep-30 20:33N 33°45' W 118°13'0 0.2
2014-Sep-30 19:33N 33°45' W 118°13'0 0.0
2014-Sep-30 18:18N 33°45' W 118°13'0 0.0
2014-Sep-30 17:32N 33°45' W 118°13'3 2.6
2014-Sep-30 16:32N 33°44' W 118°16'1 0.5
2014-Sep-30 14:33N 33°44' W 118°17'1 1.3
2014-Sep-30 13:33N 33°44' W 118°15'2 1.8
2014-Sep-30 12:33N 33°45' W 118°16'0 0.2
2014-Sep-30 11:33N 33°45' W 118°16'0 0.0
2014-Sep-30 10:33N 33°45' W 118°16'0 0.0
2014-Sep-30 09:21N 33°45' W 118°16'0 0.0
2014-Sep-30 08:26N 33°45' W 118°16'0 0.0
2014-Sep-30 07:33N 33°45' W 118°16'0 0.2
2014-Sep-30 06:31N 33°45' W 118°16'1 1.3
2014-Sep-30 05:23N 33°44' W 118°16'0 0.0
2014-Sep-30 04:33N 33°44' W 118°16'0 0.0
2014-Sep-30 03:31N 33°44' W 118°16'0 0.0
2014-Sep-30 02:26N 33°44' W 118°16'0 0.0
2014-Sep-30 01:29N 33°44' W 118°16'0 0.0
2014-Sep-30 00:32N 33°44' W 118°16'2 0.5
2014-Sep-29 21:33N 33°43' W 118°14'7 7.0
2014-Sep-29 20:33N 33°44' W 118°06'0 0.5
2014-Sep-29 19:33N 33°44' W 118°06'8 7.5
2014-Sep-29 18:28N 33°44' W 118°16'0 0.1
2014-Sep-29 16:18N 33°44' W 118°16'1 1.3
2014-Sep-29 15:15N 33°43' W 118°14'3 3.9
2014-Sep-29 14:33N 33°45' W 118°12'3 2.6
2014-Sep-29 13:25N 33°44' W 118°16'0 0.1
2014-Sep-29 12:22N 33°44' W 118°16'1 1.8
2014-Sep-29 11:33N 33°45' W 118°16'0 0.4
2014-Sep-29 10:32N 33°46' W 118°17'2 0.6
2014-Sep-29 07:18N 33°44' W 118°16'0 0.0
2014-Sep-29 06:33N 33°44' W 118°16'0 0.0
2014-Sep-29 05:21N 33°44' W 118°16'0 0.0
2014-Sep-29 04:09N 33°44' W 118°16'0 0.1
2014-Sep-29 03:19N 33°44' W 118°16'2 2.2
2014-Sep-29 02:33N 33°43' W 118°14'1 0.6
2014-Sep-29 01:03N 33°44' W 118°13'0 0.7
2014-Sep-29 00:33N 33°44' W 118°13'0 0.5
2014-Sep-28 23:33N 33°44' W 118°12'3 2.6
2014-Sep-28 22:30N 33°44' W 118°16'1 0.3
2014-Sep-28 20:32N 33°43' W 118°16'1 0.7
2014-Sep-28 19:32N 33°43' W 118°16'3 2.9
2014-Sep-28 18:33N 33°46' W 118°16'2 2.2
2014-Sep-28 17:34N 33°45' W 118°13'1 0.7
2014-Sep-28 16:33N 33°44' W 118°13'2 1.3
2014-Sep-28 15:06N 33°44' W 118°16'0 0.0
2014-Sep-28 14:26N 33°44' W 118°16'1 1.6
2014-Sep-28 13:33N 33°45' W 118°16'2 1.5
2014-Sep-28 12:33N 33°44' W 118°16'0 0.2
2014-Sep-28 11:33N 33°44' W 118°16'0 0.0
2014-Sep-28 09:33N 33°44' W 118°16'0 0.0
2014-Sep-28 08:31N 33°44' W 118°16'2 2.1
2014-Sep-28 07:33N 33°46' W 118°16'2 2.0
2014-Sep-28 06:33N 33°44' W 118°16'2 2.1
2014-Sep-28 05:33N 33°43' W 118°13'3 1.3
2014-Sep-28 03:33N 33°44' W 118°16'1 1.0
2014-Sep-28 02:27N 33°43' W 118°15'3 3.4
2014-Sep-28 01:33N 33°45' W 118°13'3 2.7
2014-Sep-28 00:33N 33°45' W 118°16'3 1.4
2014-Sep-27 22:33N 33°43' W 118°13'1 1.1
2014-Sep-27 21:33N 33°44' W 118°12'0 0.3
2014-Sep-27 20:33N 33°44' W 118°12'2 1.6
2014-Sep-27 19:32N 33°45' W 118°13'3 3.0
2014-Sep-27 18:33N 33°43' W 118°11'4 2.0
2014-Sep-27 16:33N 33°44' W 118°16'0 0.0
2014-Sep-26 23:18N 33°44' W 118°16'0 0.1
2014-Sep-26 22:14N 33°44' W 118°16'1 0.7
2014-Sep-26 21:29N 33°43' W 118°16'25 5.7
2014-Sep-26 17:06N 33°25' W 117°55'6 6.2
2014-Sep-26 16:12N 33°21' W 117°51'4 6.4
2014-Sep-26 15:33N 33°17' W 117°49'6 6.3
2014-Sep-26 14:34N 33°12' W 117°45'6 6.4
2014-Sep-26 13:34N 33°06' W 117°41'7 6.5
2014-Sep-26 12:33N 33°01' W 117°36'6 6.4
2014-Sep-26 11:33N 32°56' W 117°32'6 6.2
2014-Sep-26 10:34N 32°51' W 117°28'6 5.7
2014-Sep-26 09:33N 32°46' W 117°24'6 5.7
2014-Sep-26 08:33N 32°42' W 117°19'6 5.5
2014-Sep-26 07:32N 32°38' W 117°14'5 4.6
2014-Sep-26 06:26N 32°42' W 117°10'3 3.6
2014-Sep-26 05:30N 32°39' W 117°07'2 1.8
2014-Sep-26 04:33N 32°38' W 117°06'0 0.0
2014-Sep-26 03:33N 32°38' W 117°06'0 0.0
2014-Sep-26 02:33N 32°38' W 117°06'0 0.0
2014-Sep-26 01:33N 32°38' W 117°06'0 0.0
2014-Sep-26 00:34N 32°38' W 117°06'0 0.0
2014-Sep-25 23:33N 32°38' W 117°06'0 0.0
2014-Sep-25 22:33N 32°38' W 117°06'0 0.0
2014-Sep-25 21:33N 32°38' W 117°06'0 0.0
2014-Sep-25 20:33N 32°38' W 117°06'  
Track history (hours):
 
Tides and Currents Weather Stations Pressure Air Temp Water Temp Dewpoint Dewpoint Depression Visibility Wind Speed Wind Dir Waves Ship Positions

Tim Quigg

Owner: Harley Marine Services, Inc, Seattle, WA. More information available from US FCC via Universal Licensing System and Coast Guard Vessel Documentation Center.

Last reported at 2014-Oct-01 11:33 UTC. Time now 2014-Oct-01 12:19 UTC.
Position N 33°44' W 118°16'.

; draft 7.5 m.

Type: Tug. MMSI: 366926740.

Date/timePositionNaut miles runAvg speedWind from/ knotsBaromVisibWave heightAir tempDewpointWater temp
2014-Oct-01 11:33N 33°44' W 118°16'0 0.0
2014-Oct-01 10:33N 33°44' W 118°16'0 0.0
2014-Oct-01 09:33N 33°44' W 118°16'0 0.0
2014-Oct-01 08:33N 33°44' W 118°16'2 1.5
2014-Oct-01 07:31N 33°43' W 118°14'3 2.3
2014-Oct-01 06:24N 33°44' W 118°12'1 0.9
2014-Oct-01 05:23N 33°45' W 118°12'3 3.5
2014-Oct-01 04:33N 33°44' W 118°16'0 0.0
2014-Oct-01 03:33N 33°44' W 118°16'1 1.3
2014-Oct-01 02:33N 33°45' W 118°16'1 0.7
2014-Oct-01 01:33N 33°44' W 118°17'1 0.6
2014-Oct-01 00:32N 33°45' W 118°16'0 0.0
2014-Sep-30 23:33N 33°45' W 118°16'0 0.0
2014-Sep-30 22:33N 33°45' W 118°16'3 3.1
2014-Sep-30 21:33N 33°44' W 118°13'1 1.4
2014-Sep-30 20:33N 33°45' W 118°13'0 0.2
2014-Sep-30 19:33N 33°45' W 118°13'0 0.0
2014-Sep-30 18:18N 33°45' W 118°13'0 0.0
2014-Sep-30 17:32N 33°45' W 118°13'3 2.6
2014-Sep-30 16:32N 33°44' W 118°16'1 0.5
2014-Sep-30 14:33N 33°44' W 118°17'1 1.3
2014-Sep-30 13:33N 33°44' W 118°15'2 1.8
2014-Sep-30 12:33N 33°45' W 118°16'0 0.2
2014-Sep-30 11:33N 33°45' W 118°16'0 0.0
2014-Sep-30 10:33N 33°45' W 118°16'0 0.0
2014-Sep-30 09:21N 33°45' W 118°16'0 0.0
2014-Sep-30 08:26N 33°45' W 118°16'0 0.0
2014-Sep-30 07:33N 33°45' W 118°16'0 0.2
2014-Sep-30 06:31N 33°45' W 118°16'1 1.3
2014-Sep-30 05:23N 33°44' W 118°16'0 0.0
2014-Sep-30 04:33N 33°44' W 118°16'0 0.0
2014-Sep-30 03:31N 33°44' W 118°16'0 0.0
2014-Sep-30 02:26N 33°44' W 118°16'0 0.0
2014-Sep-30 01:29N 33°44' W 118°16'0 0.0
2014-Sep-30 00:32N 33°44' W 118°16'2 0.5
2014-Sep-29 21:33N 33°43' W 118°14'7 7.0
2014-Sep-29 20:33N 33°44' W 118°06'0 0.5
2014-Sep-29 19:33N 33°44' W 118°06'8 7.5
2014-Sep-29 18:28N 33°44' W 118°16'0 0.1
2014-Sep-29 16:18N 33°44' W 118°16'1 1.3
2014-Sep-29 15:15N 33°43' W 118°14'3 3.9
2014-Sep-29 14:33N 33°45' W 118°12'3 2.6
2014-Sep-29 13:25N 33°44' W 118°16'0 0.1
2014-Sep-29 12:22N 33°44' W 118°16'1 1.8
2014-Sep-29 11:33N 33°45' W 118°16'0 0.4
2014-Sep-29 10:32N 33°46' W 118°17'2 0.6
2014-Sep-29 07:18N 33°44' W 118°16'0 0.0
2014-Sep-29 06:33N 33°44' W 118°16'0 0.0
2014-Sep-29 05:21N 33°44' W 118°16'0 0.0
2014-Sep-29 04:09N 33°44' W 118°16'0 0.1
2014-Sep-29 03:19N 33°44' W 118°16'2 2.2
2014-Sep-29 02:33N 33°43' W 118°14'1 0.6
2014-Sep-29 01:03N 33°44' W 118°13'0 0.7
2014-Sep-29 00:33N 33°44' W 118°13'0 0.5
2014-Sep-28 23:33N 33°44' W 118°12'3 2.6
2014-Sep-28 22:30N 33°44' W 118°16'1 0.3
2014-Sep-28 20:32N 33°43' W 118°16'1 0.7
2014-Sep-28 19:32N 33°43' W 118°16'3 2.9
2014-Sep-28 18:33N 33°46' W 118°16'2 2.2
2014-Sep-28 17:34N 33°45' W 118°13'1 0.7
2014-Sep-28 16:33N 33°44' W 118°13'2 1.3
2014-Sep-28 15:06N 33°44' W 118°16'0 0.0
2014-Sep-28 14:26N 33°44' W 118°16'1 1.6
2014-Sep-28 13:33N 33°45' W 118°16'2 1.5
2014-Sep-28 12:33N 33°44' W 118°16'0 0.2
2014-Sep-28 11:33N 33°44' W 118°16'0 0.0
2014-Sep-28 09:33N 33°44' W 118°16'0 0.0
2014-Sep-28 08:31N 33°44' W 118°16'2 2.1
2014-Sep-28 07:33N 33°46' W 118°16'2 2.0
2014-Sep-28 06:33N 33°44' W 118°16'2 2.1
2014-Sep-28 05:33N 33°43' W 118°13'3 1.3
2014-Sep-28 03:33N 33°44' W 118°16'1 1.0
2014-Sep-28 02:27N 33°43' W 118°15'3 3.4
2014-Sep-28 01:33N 33°45' W 118°13'3 2.7
2014-Sep-28 00:33N 33°45' W 118°16'3 1.4
2014-Sep-27 22:33N 33°43' W 118°13'1 1.1
2014-Sep-27 21:33N 33°44' W 118°12'0 0.3
2014-Sep-27 20:33N 33°44' W 118°12'2 1.6
2014-Sep-27 19:32N 33°45' W 118°13'3 3.0
2014-Sep-27 18:33N 33°43' W 118°11'4 2.0
2014-Sep-27 16:33N 33°44' W 118°16'0 0.0
2014-Sep-26 23:18N 33°44' W 118°16'0 0.1
2014-Sep-26 22:14N 33°44' W 118°16'1 0.7
2014-Sep-26 21:29N 33°43' W 118°16'25 5.7
2014-Sep-26 17:06N 33°25' W 117°55'6 6.2
2014-Sep-26 16:12N 33°21' W 117°51'4 6.4
2014-Sep-26 15:33N 33°17' W 117°49'6 6.3
2014-Sep-26 14:34N 33°12' W 117°45'6 6.4
2014-Sep-26 13:34N 33°06' W 117°41'7 6.5
2014-Sep-26 12:33N 33°01' W 117°36'6 6.4
2014-Sep-26 11:33N 32°56' W 117°32'6 6.2
2014-Sep-26 10:34N 32°51' W 117°28'6 5.7
2014-Sep-26 09:33N 32°46' W 117°24'6 5.7
2014-Sep-26 08:33N 32°42' W 117°19'6 5.5
2014-Sep-26 07:32N 32°38' W 117°14'5 4.6
2014-Sep-26 06:26N 32°42' W 117°10'3 3.6
2014-Sep-26 05:30N 32°39' W 117°07'2 1.8
2014-Sep-26 04:33N 32°38' W 117°06'0 0.0
2014-Sep-26 03:33N 32°38' W 117°06'0 0.0
2014-Sep-26 02:33N 32°38' W 117°06'0 0.0
2014-Sep-26 01:33N 32°38' W 117°06'0 0.0
2014-Sep-26 00:34N 32°38' W 117°06'0 0.0
2014-Sep-25 23:33N 32°38' W 117°06'0 0.0
2014-Sep-25 22:33N 32°38' W 117°06'0 0.0
2014-Sep-25 21:33N 32°38' W 117°06'0 0.0
2014-Sep-25 20:33N 32°38' W 117°06'  

Dump ship's entire track history